sensor_id;sensor_type;location;lat;lon;timestamp;pressure;altitude;pressure_sealevel;temperature;humidity
44144;BME280;43510;51.920;4.492;2022-12-07T00:01:40;66706.03;;;7.64;100.00
44144;BME280;43510;51.920;4.492;2022-12-07T00:04:17;66710.88;;;7.66;100.00
44144;BME280;43510;51.920;4.492;2022-12-07T00:06:50;66714.03;;;7.66;100.00
44144;BME280;43510;51.920;4.492;2022-12-07T00:09:17;66703.41;;;7.64;100.00
44144;BME280;43510;51.920;4.492;2022-12-07T00:11:44;66704.75;;;7.60;100.00
44144;BME280;43510;51.920;4.492;2022-12-07T00:14:13;66707.91;;;7.61;100.00
44144;BME280;43510;51.920;4.492;2022-12-07T00:16:40;66692.13;;;7.51;100.00
44144;BME280;43510;51.920;4.492;2022-12-07T00:19:05;66696.78;;;7.51;100.00
44144;BME280;43510;51.920;4.492;2022-12-07T00:21:34;66677.28;;;7.40;100.00
44144;BME280;43510;51.920;4.492;2022-12-07T00:24:03;66682.09;;;7.42;100.00
44144;BME280;43510;51.920;4.492;2022-12-07T00:26:34;66671.00;;;7.32;100.00
44144;BME280;43510;51.920;4.492;2022-12-07T00:29:07;66671.38;;;7.30;100.00
44144;BME280;43510;51.920;4.492;2022-12-07T00:31:39;66661.53;;;7.23;100.00
44144;BME280;43510;51.920;4.492;2022-12-07T00:34:12;66643.91;;;7.10;100.00
44144;BME280;43510;51.920;4.492;2022-12-07T00:36:37;66651.34;;;7.12;100.00
44144;BME280;43510;51.920;4.492;2022-12-07T00:39:03;66643.94;;;7.03;100.00
44144;BME280;43510;51.920;4.492;2022-12-07T00:41:29;66641.69;;;7.08;100.00
44144;BME280;43510;51.920;4.492;2022-12-07T00:43:55;66639.66;;;7.01;100.00
44144;BME280;43510;51.920;4.492;2022-12-07T00:46:26;66638.34;;;7.05;100.00
44144;BME280;43510;51.920;4.492;2022-12-07T00:48:52;66634.06;;;7.03;100.00
44144;BME280;43510;51.920;4.492;2022-12-07T00:51:20;66634.69;;;6.96;100.00
44144;BME280;43510;51.920;4.492;2022-12-07T00:53:46;66633.56;;;6.95;100.00
44144;BME280;43510;51.920;4.492;2022-12-07T00:56:20;66640.56;;;7.07;100.00
44144;BME280;43510;51.920;4.492;2022-12-07T00:58:51;66645.41;;;7.09;100.00
44144;BME280;43510;51.920;4.492;2022-12-07T01:01:17;66642.06;;;7.06;100.00
44144;BME280;43510;51.920;4.492;2022-12-07T01:03:43;66640.41;;;7.04;100.00
44144;BME280;43510;51.920;4.492;2022-12-07T01:06:08;66637.63;;;7.02;100.00
44144;BME280;43510;51.920;4.492;2022-12-07T01:08:34;66637.06;;;7.01;100.00
44144;BME280;43510;51.920;4.492;2022-12-07T01:11:05;66642.44;;;7.04;100.00
44144;BME280;43510;51.920;4.492;2022-12-07T01:13:31;66643.56;;;7.05;100.00
44144;BME280;43510;51.920;4.492;2022-12-07T01:15:59;66638.19;;;7.02;100.00
44144;BME280;43510;51.920;4.492;2022-12-07T01:18:26;66640.94;;;7.05;100.00
44144;BME280;43510;51.920;4.492;2022-12-07T01:21:12;66650.41;;;7.13;100.00
44144;BME280;43510;51.920;4.492;2022-12-07T01:23:38;66639.84;;;7.04;100.00
44144;BME280;43510;51.920;4.492;2022-12-07T01:26:06;66642.44;;;7.04;100.00
44144;BME280;43510;51.920;4.492;2022-12-07T01:28:32;66643.75;;;7.07;100.00
44144;BME280;43510;51.920;4.492;2022-12-07T01:31:00;66643.19;;;7.07;100.00
44144;BME280;43510;51.920;4.492;2022-12-07T01:33:31;66649.84;;;7.13;100.00
44144;BME280;43510;51.920;4.492;2022-12-07T01:36:04;66649.13;;;7.10;100.00
44144;BME280;43510;51.920;4.492;2022-12-07T01:38:31;66643.75;;;7.07;100.00
44144;BME280;43510;51.920;4.492;2022-12-07T01:40:59;66638.75;;;7.03;100.00
44144;BME280;43510;51.920;4.492;2022-12-07T01:43:27;66648.41;;;7.07;100.00
44144;BME280;43510;51.920;4.492;2022-12-07T01:45:53;66642.63;;;7.06;100.00
44144;BME280;43510;51.920;4.492;2022-12-07T01:48:23;66643.19;;;7.07;100.00
44144;BME280;43510;51.920;4.492;2022-12-07T01:50:51;66639.66;;;7.01;100.00
44144;BME280;43510;51.920;4.492;2022-12-07T01:53:19;66637.63;;;7.02;100.00
44144;BME280;43510;51.920;4.492;2022-12-07T01:55:49;66641.50;;;7.05;100.00
44144;BME280;43510;51.920;4.492;2022-12-07T01:58:17;66645.22;;;7.06;100.00
44144;BME280;43510;51.920;4.492;2022-12-07T02:00:43;66656.69;;;7.21;100.00
44144;BME280;43510;51.920;4.492;2022-12-07T02:03:14;66664.88;;;7.26;100.00
44144;BME280;43510;51.920;4.492;2022-12-07T02:05:43;66657.66;;;7.20;100.00
44144;BME280;43510;51.920;4.492;2022-12-07T02:08:10;66645.59;;;7.04;100.00
44144;BME280;43510;51.920;4.492;2022-12-07T02:10:37;66635.75;;;6.97;100.00
44144;BME280;43510;51.920;4.492;2022-12-07T02:13:15;66640.22;;;7.02;100.00
44144;BME280;43510;51.920;4.492;2022-12-07T02:15:52;66628.72;;;6.93;100.00
44144;BME280;43510;51.920;4.492;2022-12-07T02:18:34;66617.59;;;6.83;100.00
44144;BME280;43510;51.920;4.492;2022-12-07T02:29:21;66604.63;;;6.69;100.00
44144;BME280;43510;51.920;4.492;2022-12-07T02:32:12;66604.81;;;6.72;100.00
44144;BME280;43510;51.920;4.492;2022-12-07T02:37:19;66619.44;;;6.87;100.00
44144;BME280;43510;51.920;4.492;2022-12-07T02:39:53;66602.97;;;6.68;100.00
44144;BME280;43510;51.920;4.492;2022-12-07T02:42:26;66604.63;;;6.69;100.00
44144;BME280;43510;51.920;4.492;2022-12-07T02:44:54;66614.47;;;6.76;100.00
44144;BME280;43510;51.920;4.492;2022-12-07T02:47:21;66615.22;;;6.79;100.00
44144;BME280;43510;51.920;4.492;2022-12-07T02:49:49;66602.78;;;6.72;100.00
44144;BME280;43510;51.920;4.492;2022-12-07T02:52:14;66611.16;;;6.73;100.00
44144;BME280;43510;51.920;4.492;2022-12-07T02:54:40;66608.72;;;6.75;100.00
44144;BME280;43510;51.920;4.492;2022-12-07T03:00:13;66619.28;;;6.85;100.00
44144;BME280;43510;51.920;4.492;2022-12-07T03:11:00;66639.84;;;7.04;100.00
44144;BME280;43510;51.920;4.492;2022-12-07T03:16:27;66638.53;;;7.07;100.00
44144;BME280;43510;51.920;4.492;2022-12-07T03:18:57;66650.97;;;7.14;100.00
44144;BME280;43510;51.920;4.492;2022-12-07T03:21:27;66660.06;;;7.17;100.00
44144;BME280;43510;51.920;4.492;2022-12-07T03:23:57;66649.47;;;7.15;100.00
44144;BME280;43510;51.920;4.492;2022-12-07T03:26:30;66651.69;;;7.17;100.00
44144;BME280;43510;51.920;4.492;2022-12-07T03:29:01;66659.13;;;7.19;100.00
44144;BME280;43510;51.920;4.492;2022-12-07T03:31:33;66653.19;;;7.16;100.00
44144;BME280;43510;51.920;4.492;2022-12-07T03:34:11;66656.91;;;7.17;100.00
44144;BME280;43510;51.920;4.492;2022-12-07T03:36:44;66645.56;;;7.11;100.00
44144;BME280;43510;51.920;4.492;2022-12-07T03:39:26;66657.09;;;7.19;100.00
44144;BME280;43510;51.920;4.492;2022-12-07T03:41:53;66656.53;;;7.19;100.00
44144;BME280;43510;51.920;4.492;2022-12-07T03:44:20;66652.09;;;7.15;100.00
44144;BME280;43510;51.920;4.492;2022-12-07T03:47:20;66660.63;;;7.18;100.00
44144;BME280;43510;51.920;4.492;2022-12-07T03:49:59;66637.63;;;7.02;100.00
44144;BME280;43510;51.920;4.492;2022-12-07T03:52:33;66631.50;;;6.96;100.00
44144;BME280;43510;51.920;4.492;2022-12-07T03:57:30;66633.16;;;6.97;100.00
44144;BME280;43510;51.920;4.492;2022-12-07T03:59:57;66637.44;;;6.99;100.00
44144;BME280;43510;51.920;4.492;2022-12-07T04:02:24;66630.94;;;6.95;100.00
44144;BME280;43510;51.920;4.492;2022-12-07T04:04:51;66624.28;;;6.89;100.00
44144;BME280;43510;51.920;4.492;2022-12-07T04:07:17;66632.25;;;6.92;100.00
44144;BME280;43510;51.920;4.492;2022-12-07T04:09:42;66626.50;;;6.91;100.00
44144;BME280;43510;51.920;4.492;2022-12-07T04:12:07;66628.56;;;6.91;100.00
44144;BME280;43510;51.920;4.492;2022-12-07T04:14:33;66622.59;;;6.88;100.00
44144;BME280;43510;51.920;4.492;2022-12-07T04:16:58;66624.84;;;6.90;100.00
44144;BME280;43510;51.920;4.492;2022-12-07T04:19:26;66627.59;;;6.92;100.00
44144;BME280;43510;51.920;4.492;2022-12-07T04:21:54;66620.75;;;6.91;100.00
44144;BME280;43510;51.920;4.492;2022-12-07T04:24:20;66623.16;;;6.88;100.00
44144;BME280;43510;51.920;4.492;2022-12-07T04:26:46;66633.94;;;6.93;100.00
44144;BME280;43510;51.920;4.492;2022-12-07T04:29:12;66632.44;;;6.94;100.00
44144;BME280;43510;51.920;4.492;2022-12-07T04:31:38;66629.06;;;6.98;100.00
44144;BME280;43510;51.920;4.492;2022-12-07T04:34:08;66638.75;;;7.03;100.00
44144;BME280;43510;51.920;4.492;2022-12-07T04:36:34;66634.69;;;6.96;100.00
44144;BME280;43510;51.920;4.492;2022-12-07T04:39:00;66637.63;;;7.02;100.00
44144;BME280;43510;51.920;4.492;2022-12-07T04:41:27;66634.28;;;6.98;100.00
44144;BME280;43510;51.920;4.492;2022-12-07T04:43:54;66640.59;;;7.00;100.00
44144;BME280;43510;51.920;4.492;2022-12-07T04:46:21;66632.06;;;6.96;100.00
44144;BME280;43510;51.920;4.492;2022-12-07T04:48:46;66628.16;;;6.93;100.00
44144;BME280;43510;51.920;4.492;2022-12-07T04:51:12;66627.59;;;6.92;100.00
44144;BME280;43510;51.920;4.492;2022-12-07T04:53:38;66626.31;;;6.89;100.00
44144;BME280;43510;51.920;4.492;2022-12-07T04:56:03;66623.16;;;6.88;100.00
44144;BME280;43510;51.920;4.492;2022-12-07T04:58:29;66620.38;;;6.86;100.00
44144;BME280;43510;51.920;4.492;2022-12-07T05:00:54;66625.78;;;6.88;100.00
44144;BME280;43510;51.920;4.492;2022-12-07T05:03:20;66615.72;;;6.86;100.00
44144;BME280;43510;51.920;4.492;2022-12-07T05:05:45;66625.78;;;6.88;100.00
44144;BME280;43510;51.920;4.492;2022-12-07T05:08:11;66617.97;;;6.88;100.00
44144;BME280;43510;51.920;4.492;2022-12-07T05:10:36;66621.69;;;6.82;100.00
44144;BME280;43510;51.920;4.492;2022-12-07T05:13:02;66622.81;;;6.83;100.00
44144;BME280;43510;51.920;4.492;2022-12-07T05:15:27;66614.25;;;6.80;100.00
44144;BME280;43510;51.920;4.492;2022-12-07T05:17:52;66612.44;;;6.76;100.00
44144;BME280;43510;51.920;4.492;2022-12-07T05:20:19;66620.59;;;6.81;100.00
44144;BME280;43510;51.920;4.492;2022-12-07T05:22:44;66625.41;;;6.90;100.00
44144;BME280;43510;51.920;4.492;2022-12-07T05:25:10;66632.06;;;6.96;100.00
44144;BME280;43510;51.920;4.492;2022-12-07T05:27:35;66643.19;;;7.07;100.00
44144;BME280;43510;51.920;4.492;2022-12-07T05:30:01;66643.19;;;7.07;100.00
44144;BME280;43510;51.920;4.492;2022-12-07T05:32:26;66647.84;;;7.06;100.00
44144;BME280;43510;51.920;4.492;2022-12-07T05:34:52;66632.06;;;6.96;100.00
44144;BME280;43510;51.920;4.492;2022-12-07T05:37:20;66628.16;;;6.93;100.00
44144;BME280;43510;51.920;4.492;2022-12-07T05:39:46;66639.50;;;6.98;100.00
44144;BME280;43510;51.920;4.492;2022-12-07T05:42:12;66632.06;;;6.96;100.00
44144;BME280;43510;51.920;4.492;2022-12-07T05:44:42;66627.59;;;6.92;100.00
44144;BME280;43510;51.920;4.492;2022-12-07T05:47:08;66629.09;;;6.91;100.00
44144;BME280;43510;51.920;4.492;2022-12-07T05:49:33;66621.50;;;6.87;100.00
44144;BME280;43510;51.920;4.492;2022-12-07T05:51:59;66621.88;;;6.85;100.00
44144;BME280;43510;51.920;4.492;2022-12-07T05:54:24;66615.75;;;6.79;100.00
44144;BME280;43510;51.920;4.492;2022-12-07T05:56:50;66612.06;;;6.78;100.00
44144;BME280;43510;51.920;4.492;2022-12-07T05:59:17;66615.75;;;6.79;100.00
44144;BME280;43510;51.920;4.492;2022-12-07T06:01:54;66617.97;;;6.81;100.00
44144;BME280;43510;51.920;4.492;2022-12-07T06:04:20;66609.81;;;6.76;100.00
44144;BME280;43510;51.920;4.492;2022-12-07T06:06:46;66607.59;;;6.74;100.00
44144;BME280;43510;51.920;4.492;2022-12-07T06:09:11;66607.59;;;6.74;100.00
44144;BME280;43510;51.920;4.492;2022-12-07T06:11:38;66604.63;;;6.76;100.00
44144;BME280;43510;51.920;4.492;2022-12-07T06:14:22;66607.59;;;6.74;100.00
44144;BME280;43510;51.920;4.492;2022-12-07T06:16:48;66607.59;;;6.74;100.00
44144;BME280;43510;51.920;4.492;2022-12-07T06:19:14;66602.59;;;6.70;100.00
44144;BME280;43510;51.920;4.492;2022-12-07T06:21:40;66602.81;;;6.65;100.00
44144;BME280;43510;51.920;4.492;2022-12-07T06:24:06;66604.09;;;6.69;100.00
44144;BME280;43510;51.920;4.492;2022-12-07T06:26:32;66602.44;;;6.67;100.00
44144;BME280;43510;51.920;4.492;2022-12-07T06:28:57;66602.81;;;6.65;100.00
44144;BME280;43510;51.920;4.492;2022-12-07T06:31:22;66603.53;;;6.68;100.00
44144;BME280;43510;51.920;4.492;2022-12-07T06:33:48;66597.59;;;6.65;100.00
44144;BME280;43510;51.920;4.492;2022-12-07T06:36:13;66606.88;;;6.71;100.00
44144;BME280;43510;51.920;4.492;2022-12-07T06:38:39;66605.19;;;6.70;100.00
44144;BME280;43510;51.920;4.492;2022-12-07T06:41:05;66606.31;;;6.71;100.00
44144;BME280;43510;51.920;4.492;2022-12-07T06:43:31;66607.44;;;6.72;100.00
44144;BME280;43510;51.920;4.492;2022-12-07T06:45:57;66609.09;;;6.73;100.00
44144;BME280;43510;51.920;4.492;2022-12-07T06:48:22;66609.47;;;6.71;100.00
44144;BME280;43510;51.920;4.492;2022-12-07T06:50:48;66612.81;;;6.74;100.00
44144;BME280;43510;51.920;4.492;2022-12-07T06:53:13;66609.25;;;6.76;100.00
44144;BME280;43510;51.920;4.492;2022-12-07T06:55:39;66616.69;;;6.78;100.00
44144;BME280;43510;51.920;4.492;2022-12-07T06:58:04;66619.81;;;6.85;100.00
44144;BME280;43510;51.920;4.492;2022-12-07T07:00:30;66623.53;;;6.86;100.00
44144;BME280;43510;51.920;4.492;2022-12-07T07:02:55;66626.88;;;6.89;100.00
44144;BME280;43510;51.920;4.492;2022-12-07T07:05:21;66625.97;;;6.91;100.00
44144;BME280;43510;51.920;4.492;2022-12-07T07:07:50;66623.34;;;6.91;100.00
44144;BME280;43510;51.920;4.492;2022-12-07T07:10:15;66629.84;;;6.94;100.00
44144;BME280;43510;51.920;4.492;2022-12-07T07:12:41;66624.28;;;6.89;100.00
44144;BME280;43510;51.920;4.492;2022-12-07T07:15:06;66635.03;;;7.02;100.00
44144;BME280;43510;51.920;4.492;2022-12-07T07:17:32;66639.50;;;6.98;100.00
44144;BME280;43510;51.920;4.492;2022-12-07T07:19:57;66631.50;;;6.96;100.00
44144;BME280;43510;51.920;4.492;2022-12-07T07:22:23;66634.28;;;6.98;100.00
44144;BME280;43510;51.920;4.492;2022-12-07T07:24:48;66626.13;;;6.93;100.00
44144;BME280;43510;51.920;4.492;2022-12-07T07:27:14;66628.72;;;6.93;100.00
44144;BME280;43510;51.920;4.492;2022-12-07T07:29:39;66631.31;;;6.93;100.00
44144;BME280;43510;51.920;4.492;2022-12-07T07:32:05;66623.53;;;6.86;100.00
44144;BME280;43510;51.920;4.492;2022-12-07T07:34:30;66625.03;;;6.85;100.00
44144;BME280;43510;51.920;4.492;2022-12-07T07:36:56;66619.81;;;6.85;100.00
44144;BME280;43510;51.920;4.492;2022-12-07T07:39:21;66620.78;;;6.84;100.00
44144;BME280;43510;51.920;4.492;2022-12-07T07:41:46;66619.81;;;6.85;100.00
44144;BME280;43510;51.920;4.492;2022-12-07T07:44:12;66616.50;;;6.82;100.00
44144;BME280;43510;51.920;4.492;2022-12-07T07:46:37;66619.66;;;6.83;100.00
44144;BME280;43510;51.920;4.492;2022-12-07T07:49:03;66623.16;;;6.88;100.00
44144;BME280;43510;51.920;4.492;2022-12-07T07:51:29;66635.03;;;7.02;100.00
44144;BME280;43510;51.920;4.492;2022-12-07T07:53:55;66639.28;;;7.03;100.00
44144;BME280;43510;51.920;4.492;2022-12-07T07:56:20;66641.69;;;7.08;100.00
44144;BME280;43510;51.920;4.492;2022-12-07T07:58:46;66652.63;;;7.15;100.00
44144;BME280;43510;51.920;4.492;2022-12-07T08:01:11;66662.09;;;7.24;100.00
44144;BME280;43510;51.920;4.492;2022-12-07T08:03:39;66658.19;;;7.20;100.00
44144;BME280;43510;51.920;4.492;2022-12-07T08:06:04;66657.81;;;7.22;100.00
44144;BME280;43510;51.920;4.492;2022-12-07T08:08:30;66668.97;;;7.25;100.00
44144;BME280;43510;51.920;4.492;2022-12-07T08:10:55;66668.75;;;7.30;100.00
44144;BME280;43510;51.920;4.492;2022-12-07T08:13:21;66664.66;;;7.31;100.00
44144;BME280;43510;51.920;4.492;2022-12-07T08:15:47;66673.19;;;7.34;100.00
44144;BME280;43510;51.920;4.492;2022-12-07T08:18:14;66677.09;;;7.37;100.00
44144;BME280;43510;51.920;4.492;2022-12-07T08:20:40;66685.06;;;7.47;100.00
44144;BME280;43510;51.920;4.492;2022-12-07T08:23:07;66710.69;;;7.63;100.00
44144;BME280;43510;51.920;4.492;2022-12-07T08:25:33;66722.53;;;7.76;100.00
44144;BME280;43510;51.920;4.492;2022-12-07T08:28:00;66735.53;;;7.91;100.00
44144;BME280;43510;51.920;4.492;2022-12-07T08:30:27;66762.28;;;8.08;99.65
44144;BME280;43510;51.920;4.492;2022-12-07T08:32:53;66772.81;;;8.25;99.39
44144;BME280;43510;51.920;4.492;2022-12-07T08:35:18;66797.16;;;8.44;98.82
44144;BME280;43510;51.920;4.492;2022-12-07T08:37:44;66813.84;;;8.59;98.43
44144;BME280;43510;51.920;4.492;2022-12-07T08:40:11;66812.34;;;8.60;97.58
44144;BME280;43510;51.920;4.492;2022-12-07T08:42:50;66827.63;;;8.70;97.83
44144;BME280;43510;51.920;4.492;2022-12-07T08:45:18;66818.31;;;8.64;96.97
44144;BME280;43510;51.920;4.492;2022-12-07T08:47:55;66829.41;;;8.81;97.48
44144;BME280;43510;51.920;4.492;2022-12-07T08:50:22;66825.72;;;8.73;96.19
44144;BME280;43510;51.920;4.492;2022-12-07T08:52:54;66819.97;;;8.65;96.43
44144;BME280;43510;51.920;4.492;2022-12-07T08:55:20;66814.03;;;8.62;96.09
44144;BME280;43510;51.920;4.492;2022-12-07T08:57:46;66806.94;;;8.58;96.09
44144;BME280;43510;51.920;4.492;2022-12-07T09:00:12;66826.84;;;8.74;95.93
44144;BME280;43510;51.920;4.492;2022-12-07T09:02:38;66853.56;;;8.98;95.31
44144;BME280;43510;51.920;4.492;2022-12-07T09:05:04;66871.16;;;9.19;94.62
44144;BME280;43510;51.920;4.492;2022-12-07T09:07:30;66889.78;;;9.31;93.69
44144;BME280;43510;51.920;4.492;2022-12-07T09:09:57;66923.22;;;9.61;92.85
44144;BME280;43510;51.920;4.492;2022-12-07T09:12:23;66939.94;;;9.76;92.16
44144;BME280;43510;51.920;4.492;2022-12-07T09:14:48;66965.41;;;9.97;91.60
44144;BME280;43510;51.920;4.492;2022-12-07T09:17:19;66973.94;;;10.07;91.09
44144;BME280;43510;51.920;4.492;2022-12-07T09:19:49;66958.66;;;9.98;91.07
44144;BME280;43510;51.920;4.492;2022-12-07T09:22:15;66947.72;;;9.83;91.04
44144;BME280;43510;51.920;4.492;2022-12-07T09:24:40;66931.56;;;9.69;91.16
44144;BME280;43510;51.920;4.492;2022-12-07T09:27:06;66960.78;;;9.91;90.96
44144;BME280;43510;51.920;4.492;2022-12-07T09:29:31;66960.53;;;9.95;90.63
44144;BME280;43510;51.920;4.492;2022-12-07T09:32:05;66951.63;;;9.87;91.27
44144;BME280;43510;51.920;4.492;2022-12-07T09:34:31;66936.59;;;9.73;91.25
44144;BME280;43510;51.920;4.492;2022-12-07T09:36:57;66912.28;;;9.47;92.00
44144;BME280;43510;51.920;4.492;2022-12-07T09:39:23;66891.44;;;9.32;92.70
44144;BME280;43510;51.920;4.492;2022-12-07T09:41:50;66868.44;;;9.09;93.41
44144;BME280;43510;51.920;4.492;2022-12-07T09:44:23;66852.44;;;8.97;94.23
44144;BME280;43510;51.920;4.492;2022-12-07T09:46:52;66834.06;;;8.80;94.66
44144;BME280;43510;51.920;4.492;2022-12-07T09:49:23;66828.50;;;8.75;94.38
44144;BME280;43510;51.920;4.492;2022-12-07T09:54:45;66840.59;;;8.84;95.41
44144;BME280;43510;51.920;4.492;2022-12-07T09:57:12;66857.47;;;9.01;94.42
44144;BME280;43510;51.920;4.492;2022-12-07T09:59:39;66899.63;;;9.37;93.45
44144;BME280;43510;51.920;4.492;2022-12-07T10:02:40;66939.38;;;9.76;92.73
44144;BME280;43510;51.920;4.492;2022-12-07T10:05:23;66959.44;;;9.94;91.71
44144;BME280;43510;51.920;4.492;2022-12-07T10:07:52;66967.63;;;9.99;91.19
44144;BME280;43510;51.920;4.492;2022-12-07T10:10:25;66988.44;;;10.20;90.62
44144;BME280;43510;51.920;4.492;2022-12-07T10:15:59;67040.16;;;10.65;89.08
44144;BME280;43510;51.920;4.492;2022-12-07T10:18:34;67062.06;;;10.87;87.51
44144;BME280;43510;51.920;4.492;2022-12-07T10:21:19;67092.94;;;11.18;87.02
44144;BME280;43510;51.920;4.492;2022-12-07T10:24:12;67128.72;;;11.43;85.51
44144;BME280;43510;51.920;4.492;2022-12-07T10:26:50;67118.44;;;11.38;84.67
44144;BME280;43510;51.920;4.492;2022-12-07T10:31:43;67132.38;;;11.51;84.81
44144;BME280;43510;51.920;4.492;2022-12-07T10:34:31;67162.56;;;11.78;85.10
44144;BME280;43510;51.920;4.492;2022-12-07T10:39:52;67234.44;;;12.41;82.56
44144;BME280;43510;51.920;4.492;2022-12-07T10:42:23;67217.28;;;12.28;81.92
44144;BME280;43510;51.920;4.492;2022-12-07T10:45:06;67198.28;;;12.11;81.91
44144;BME280;43510;51.920;4.492;2022-12-07T10:47:48;67173.72;;;11.89;82.71
44144;BME280;43510;51.920;4.492;2022-12-07T10:53:20;67116.78;;;11.37;84.92
44144;BME280;43510;51.920;4.492;2022-12-07T11:02:30;67078.25;;;11.02;86.83
44144;BME280;43510;51.920;4.492;2022-12-07T11:08:18;67129.44;;;11.46;86.05
44144;BME280;43510;51.920;4.492;2022-12-07T11:11:30;67126.81;;;11.46;85.93
44144;BME280;43510;51.920;4.492;2022-12-07T11:16:59;67123.84;;;11.41;85.70
44144;BME280;43510;51.920;4.492;2022-12-07T11:20:02;67120.50;;;11.38;85.23
44144;BME280;43510;51.920;4.492;2022-12-07T11:33:42;67136.47;;;11.57;83.93
44144;BME280;43510;51.920;4.492;2022-12-07T11:36:25;67154.38;;;11.73;83.08
44144;BME280;43510;51.920;4.492;2022-12-07T11:39:09;67157.00;;;11.73;82.20
44144;BME280;43510;51.920;4.492;2022-12-07T11:41:39;67170.22;;;11.83;81.58
44144;BME280;43510;51.920;4.492;2022-12-07T11:47:07;67161.44;;;11.77;80.90
44144;BME280;43510;51.920;4.492;2022-12-07T11:52:18;67103.94;;;11.25;80.20
44144;BME280;43510;51.920;4.492;2022-12-07T11:54:46;67009.66;;;10.40;82.69
44144;BME280;43510;51.920;4.492;2022-12-07T11:57:20;66935.31;;;9.70;86.86
44144;BME280;43510;51.920;4.492;2022-12-07T11:59:58;66888.31;;;9.25;91.03
44144;BME280;43510;51.920;4.492;2022-12-07T12:02:32;66833.19;;;8.75;94.30
44144;BME280;43510;51.920;4.492;2022-12-07T12:05:17;66801.59;;;8.48;97.11
44144;BME280;43510;51.920;4.492;2022-12-07T12:07:44;66789.53;;;8.40;98.07
44144;BME280;43510;51.920;4.492;2022-12-07T12:10:19;66794.19;;;8.39;99.51
44144;BME280;43510;51.920;4.492;2022-12-07T12:15:45;66791.03;;;8.39;100.00
44144;BME280;43510;51.920;4.492;2022-12-07T12:23:54;66821.84;;;8.69;100.00
44144;BME280;43510;51.920;4.492;2022-12-07T12:26:27;66833.53;;;8.80;100.00
44144;BME280;43510;51.920;4.492;2022-12-07T12:28:55;66853.00;;;8.97;100.00
44144;BME280;43510;51.920;4.492;2022-12-07T12:34:01;66849.09;;;8.94;100.00
44144;BME280;43510;51.920;4.492;2022-12-07T12:36:46;66871.38;;;9.14;100.00
44144;BME280;43510;51.920;4.492;2022-12-07T12:39:15;66873.22;;;9.18;100.00
44144;BME280;43510;51.920;4.492;2022-12-07T12:51:47;66986.56;;;10.23;99.46
44144;BME280;43510;51.920;4.492;2022-12-07T12:54:34;66997.38;;;10.29;99.73
44144;BME280;43510;51.920;4.492;2022-12-07T13:02:36;66989.22;;;10.16;100.00
44144;BME280;43510;51.920;4.492;2022-12-07T13:05:18;66977.28;;;10.10;99.89
44144;BME280;43510;51.920;4.492;2022-12-07T13:26:21;67011.16;;;10.39;99.06
44144;BME280;43510;51.920;4.492;2022-12-07T13:28:52;67002.06;;;10.28;99.18
44144;BME280;43510;51.920;4.492;2022-12-07T13:33:58;66971.50;;;10.10;99.24
44144;BME280;43510;51.920;4.492;2022-12-07T13:36:26;66961.84;;;9.99;99.16
44144;BME280;43510;51.920;4.492;2022-12-07T13:39:00;66949.97;;;9.86;98.45
44144;BME280;43510;51.920;4.492;2022-12-07T13:41:35;66934.19;;;9.69;97.79
44144;BME280;43510;51.920;4.492;2022-12-07T13:44:08;66923.22;;;9.61;97.99
44144;BME280;43510;51.920;4.492;2022-12-07T13:49:20;66907.06;;;9.47;97.79
44144;BME280;43510;51.920;4.492;2022-12-07T13:51:47;66884.94;;;9.29;96.81
44144;BME280;43510;51.920;4.492;2022-12-07T13:54:13;66887.38;;;9.26;95.65
44144;BME280;43510;51.920;4.492;2022-12-07T13:56:39;66881.97;;;9.24;95.42
44144;BME280;43510;51.920;4.492;2022-12-07T13:59:14;66884.59;;;9.24;94.96
44144;BME280;43510;51.920;4.492;2022-12-07T14:01:41;66881.44;;;9.23;94.86
44144;BME280;43510;51.920;4.492;2022-12-07T14:04:34;66892.56;;;9.33;95.60
44144;BME280;43510;51.920;4.492;2022-12-07T14:07:01;66881.97;;;9.24;95.37
44144;BME280;43510;51.920;4.492;2022-12-07T14:09:56;66893.69;;;9.34;95.75
44144;BME280;43510;51.920;4.492;2022-12-07T14:12:24;66885.31;;;9.27;95.50
44144;BME280;43510;51.920;4.492;2022-12-07T14:14:50;66889.38;;;9.33;95.68
44144;BME280;43510;51.920;4.492;2022-12-07T14:17:21;66908.56;;;9.46;95.48
44144;BME280;43510;51.920;4.492;2022-12-07T14:22:34;66918.19;;;9.57;94.83
44144;BME280;43510;51.920;4.492;2022-12-07T14:27:37;66910.06;;;9.45;94.35
44144;BME280;43510;51.920;4.492;2022-12-07T14:30:04;66899.47;;;9.35;94.87
44144;BME280;43510;51.920;4.492;2022-12-07T14:32:30;66888.50;;;9.27;94.82
44144;BME280;43510;51.920;4.492;2022-12-07T14:35:11;66885.13;;;9.24;95.09
44144;BME280;43510;51.920;4.492;2022-12-07T14:37:38;66880.31;;;9.22;94.74
44144;BME280;43510;51.920;4.492;2022-12-07T14:40:05;66882.94;;;9.22;94.11
44144;BME280;43510;51.920;4.492;2022-12-07T14:42:31;66884.19;;;9.26;94.15
44144;BME280;43510;51.920;4.492;2022-12-07T14:45:00;66889.63;;;9.28;94.00
44144;BME280;43510;51.920;4.492;2022-12-07T14:47:26;66882.53;;;9.24;93.88
44144;BME280;43510;51.920;4.492;2022-12-07T14:49:52;66881.44;;;9.23;93.49
44144;BME280;43510;51.920;4.492;2022-12-07T14:52:28;66891.81;;;9.30;93.70
44144;BME280;43510;51.920;4.492;2022-12-07T14:54:55;66885.31;;;9.27;93.25
44144;BME280;43510;51.920;4.492;2022-12-07T14:57:21;66883.09;;;9.25;93.14
44144;BME280;43510;51.920;4.492;2022-12-07T14:59:46;66884.75;;;9.26;92.66
44144;BME280;43510;51.920;4.492;2022-12-07T15:02:13;66883.09;;;9.25;93.07
44144;BME280;43510;51.920;4.492;2022-12-07T15:04:39;66873.06;;;9.16;93.29
44144;BME280;43510;51.920;4.492;2022-12-07T15:07:08;66860.25;;;9.04;94.01
44144;BME280;43510;51.920;4.492;2022-12-07T15:09:35;66857.84;;;8.99;94.61
44144;BME280;43510;51.920;4.492;2022-12-07T15:12:01;66856.56;;;8.96;95.29
44144;BME280;43510;51.920;4.492;2022-12-07T15:14:26;66841.69;;;8.85;95.88
44144;BME280;43510;51.920;4.492;2022-12-07T15:16:52;66835.00;;;8.79;96.03
44144;BME280;43510;51.920;4.492;2022-12-07T15:19:19;66821.84;;;8.69;96.62
44144;BME280;43510;51.920;4.492;2022-12-07T15:21:50;66821.66;;;8.67;97.02